Time;durP1;ratioP1;P1;durP2;ratioP2;P2;SDS_P1;SDS_P2;PMS_P1;PMS_P2;Temp;Humidity;BMP_temperature;BMP_pressure;BME280_temperature;BME280_humidity;BME280_pressure;Samples;Min_cycle;Max_cycle;Signal;HPM_P1;HPM_P2
2023/03/09 00:00:17;;;;;;;1.70;0.80;;;11.00;99.90;;;;;;5033444;28;20209;-73
2023/03/09 00:02:42;;;;;;;1.57;0.60;;;11.00;99.90;;;;;;5049914;28;20267;-73
2023/03/09 00:05:11;;;;;;;1.53;0.90;;;11.00;99.90;;;;;;5051098;28;20499;-74
2023/03/09 00:07:36;;;;;;;1.07;0.73;;;11.10;99.90;;;;;;5051064;28;20217;-73
2023/03/09 00:10:03;;;;;;;2.20;0.80;;;11.10;99.90;;;;;;5051148;28;20927;-73
2023/03/09 00:12:28;;;;;;;0.90;0.60;;;11.30;99.90;;;;;;5049674;28;20190;-73
2023/03/09 00:14:54;;;;;;;1.53;0.70;;;11.30;99.90;;;;;;5050899;28;20414;-73
2023/03/09 00:17:20;;;;;;;1.70;0.90;;;11.50;99.90;;;;;;5050879;28;20553;-74
2023/03/09 00:19:46;;;;;;;3.07;0.93;;;11.40;99.90;;;;;;5050616;28;20306;-73
2023/03/09 00:22:12;;;;;;;1.57;0.57;;;11.50;99.90;;;;;;5050711;28;21005;-72
2023/03/09 00:24:45;;;;;;;1.10;0.80;;;11.60;99.90;;;;;;5050658;28;20837;-73
2023/03/09 00:27:11;;;;;;;1.93;0.60;;;11.70;99.90;;;;;;5049448;28;20185;-73
2023/03/09 00:29:37;;;;;;;0.80;0.60;;;11.60;99.90;;;;;;5050275;28;20528;-73
2023/03/09 00:32:03;;;;;;;2.57;0.70;;;11.80;99.90;;;;;;5050140;28;20506;-72
2023/03/09 00:34:29;;;;;;;0.97;0.80;;;11.70;99.90;;;;;;5050396;28;20217;-72
2023/03/09 00:36:54;;;;;;;1.40;0.67;;;11.80;99.90;;;;;;5048897;28;20204;-73
2023/03/09 00:39:22;;;;;;;1.73;0.50;;;11.80;99.90;;;;;;5050034;28;20208;-73
2023/03/09 00:41:47;;;;;;;3.57;1.10;;;11.80;99.90;;;;;;5050090;28;20210;-72
2023/03/09 00:44:14;;;;;;;0.90;0.60;;;11.70;99.90;;;;;;5049925;28;20503;-72
2023/03/09 00:46:40;;;;;;;2.47;0.90;;;11.60;99.90;;;;;;5049830;28;20192;-72
2023/03/09 00:49:06;;;;;;;4.10;1.03;;;11.50;99.90;;;;;;5049568;28;20449;-72
2023/03/09 00:51:33;;;;;;;5.00;1.07;;;11.30;99.90;;;;;;5049730;28;20539;-72
2023/03/09 00:53:59;;;;;;;1.80;0.87;;;10.90;99.90;;;;;;5049587;28;20918;-72
2023/03/09 00:56:27;;;;;;;6.70;1.03;;;10.50;99.90;;;;;;5049646;28;20428;-72
2023/03/09 00:58:53;;;;;;;0.90;0.60;;;10.30;99.90;;;;;;5049463;28;20205;-72
2023/03/09 01:01:19;;;;;;;2.07;1.00;;;10.20;99.90;;;;;;5049522;28;20510;-72
2023/03/09 01:03:45;;;;;;;2.30;0.70;;;10.10;99.90;;;;;;5049502;28;20417;-72
2023/03/09 01:06:12;;;;;;;1.57;0.70;;;10.10;99.90;;;;;;5049416;28;20416;-72
2023/03/09 01:08:38;;;;;;;1.00;0.60;;;10.00;99.90;;;;;;5049281;28;20481;-72
2023/03/09 01:11:09;;;;;;;0.73;0.50;;;10.00;99.90;;;;;;5049316;28;20454;-72
2023/03/09 01:13:35;;;;;;;0.97;0.50;;;10.00;99.90;;;;;;5049242;28;20192;-72
2023/03/09 01:16:01;;;;;;;3.17;0.87;;;9.80;99.90;;;;;;5049184;28;20514;-72
2023/03/09 01:18:27;;;;;;;0.80;0.50;;;9.80;99.90;;;;;;5049197;28;20466;-72
2023/03/09 01:20:53;;;;;;;0.70;0.40;;;9.70;99.90;;;;;;5047746;28;20567;-73
2023/03/09 01:23:18;;;;;;;2.40;0.50;;;9.60;99.90;;;;;;5048845;28;20192;-72
2023/03/09 01:25:44;;;;;;;0.70;0.40;;;9.50;99.90;;;;;;5049136;28;20189;-73
2023/03/09 01:28:11;;;;;;;2.50;0.40;;;9.40;99.90;;;;;;5049019;28;20238;-72
2023/03/09 01:30:37;;;;;;;0.87;0.40;;;9.30;99.90;;;;;;5048935;28;20184;-73
2023/03/09 01:33:03;;;;;;;1.47;0.50;;;9.20;99.90;;;;;;5049049;28;20414;-72
2023/03/09 01:35:28;;;;;;;0.90;0.50;;;9.20;99.90;;;;;;5049261;28;20512;-73
2023/03/09 01:37:54;;;;;;;0.70;0.40;;;9.10;99.90;;;;;;5049564;28;20206;-72
2023/03/09 01:40:22;;;;;;;1.63;0.50;;;9.10;99.90;;;;;;5049546;28;20213;-72
2023/03/09 01:43:01;;;;;;;1.30;0.40;;;9.10;99.90;;;;;;5048481;28;20271;-71
2023/03/09 01:45:27;;;;;;;0.80;0.50;;;9.10;99.90;;;;;;5047906;28;20456;-72
2023/03/09 01:47:56;;;;;;;0.80;0.40;;;9.10;99.90;;;;;;5049040;28;20446;-72
2023/03/09 01:50:28;;;;;;;3.50;0.50;;;9.00;99.90;;;;;;5047787;28;20194;-72
2023/03/09 01:52:56;;;;;;;0.70;0.30;;;9.00;99.90;;;;;;5049021;28;20899;-72
2023/03/09 01:55:28;;;;;;;0.80;0.40;;;9.00;99.90;;;;;;5049000;28;20472;-72
2023/03/09 01:57:57;;;;;;;1.67;0.40;;;8.90;99.90;;;;;;5048763;28;20406;-73
2023/03/09 02:00:24;;;;;;;2.10;0.60;;;8.90;99.90;;;;;;5048716;28;20462;-72
2023/03/09 02:02:55;;;;;;;0.70;0.40;;;8.90;99.90;;;;;;5048694;28;20425;-73
2023/03/09 02:05:29;;;;;;;1.73;0.50;;;8.90;99.90;;;;;;5047629;28;20415;-72
2023/03/09 02:07:56;;;;;;;3.00;0.60;;;8.90;99.90;;;;;;5049010;28;20418;-72
2023/03/09 02:10:30;;;;;;;1.53;0.40;;;8.90;99.90;;;;;;5049137;28;20410;-73
2023/03/09 02:13:00;;;;;;;2.30;0.40;;;8.90;99.90;;;;;;5049002;28;20411;-73
2023/03/09 02:15:25;;;;;;;0.70;0.40;;;8.90;99.90;;;;;;5047961;28;20426;-72
2023/03/09 02:17:51;;;;;;;1.53;0.50;;;8.80;99.90;;;;;;5047606;28;20430;-73
2023/03/09 02:20:39;;;;;;;1.23;0.50;;;8.80;99.90;;;;;;5049105;28;20207;-72
2023/03/09 02:23:12;;;;;;;0.70;0.40;;;8.70;99.90;;;;;;5049213;28;20241;-72
2023/03/09 02:25:47;;;;;;;0.90;0.40;;;8.70;99.90;;;;;;5049708;28;20398;-73
2023/03/09 02:28:13;;;;;;;1.70;0.43;;;8.50;99.90;;;;;;5049104;28;20528;-73
2023/03/09 02:30:42;;;;;;;4.03;0.60;;;8.50;99.90;;;;;;5047562;28;20513;-73
2023/03/09 02:33:25;;;;;;;0.70;0.43;;;8.40;99.90;;;;;;5048923;28;20192;-73
2023/03/09 02:35:52;;;;;;;0.77;0.40;;;8.40;99.90;;;;;;5049003;28;20890;-72
2023/03/09 02:38:18;;;;;;;0.70;0.40;;;8.40;99.90;;;;;;5048781;28;20517;-73
2023/03/09 02:40:50;;;;;;;1.97;0.50;;;8.40;99.90;;;;;;5049039;28;21069;-73
2023/03/09 02:43:22;;;;;;;1.00;0.70;;;8.30;99.90;;;;;;5049335;28;20537;-72
2023/03/09 02:45:48;;;;;;;0.60;0.40;;;8.30;99.90;;;;;;5049204;28;20517;-72
2023/03/09 02:48:14;;;;;;;3.23;0.50;;;8.30;99.90;;;;;;5049113;28;20446;-73
2023/03/09 02:50:40;;;;;;;0.60;0.30;;;8.30;99.90;;;;;;5049625;28;20411;-72
2023/03/09 02:53:06;;;;;;;1.10;0.30;;;8.30;99.90;;;;;;5049407;28;20752;-73
2023/03/09 02:55:31;;;;;;;0.97;0.40;;;8.40;99.90;;;;;;5052753;28;20211;-73
2023/03/09 02:57:57;;;;;;;1.57;0.40;;;8.40;99.90;;;;;;5052405;28;20184;-73
2023/03/09 03:00:23;;;;;;;0.70;0.40;;;8.40;99.90;;;;;;5052634;28;20223;-73
2023/03/09 03:02:49;;;;;;;0.70;0.40;;;8.50;99.90;;;;;;5052528;28;20206;-73
2023/03/09 03:05:15;;;;;;;0.70;0.40;;;8.50;99.90;;;;;;5052284;28;20187;-73
2023/03/09 03:07:40;;;;;;;0.80;0.40;;;8.60;99.90;;;;;;5052269;28;20429;-73
2023/03/09 03:10:07;;;;;;;0.80;0.40;;;8.70;99.90;;;;;;5052373;28;20426;-73
2023/03/09 03:12:32;;;;;;;0.60;0.40;;;8.80;99.90;;;;;;5052132;28;20220;-73
2023/03/09 03:14:58;;;;;;;2.10;0.40;;;8.80;99.90;;;;;;5052058;28;20458;-73
2023/03/09 03:17:24;;;;;;;0.80;0.30;;;8.80;99.90;;;;;;5052421;28;20188;-73
2023/03/09 03:19:49;;;;;;;0.70;0.40;;;8.90;99.90;;;;;;5052380;28;20207;-73
2023/03/09 03:22:15;;;;;;;0.90;0.40;;;8.90;99.90;;;;;;5052497;28;20927;-72
2023/03/09 03:24:41;;;;;;;1.77;0.50;;;8.90;99.90;;;;;;5052462;28;20176;-73
2023/03/09 03:27:07;;;;;;;1.43;0.50;;;8.90;99.90;;;;;;5052488;28;20180;-73
2023/03/09 03:29:32;;;;;;;0.90;0.40;;;9.00;99.90;;;;;;5052394;28;20440;-73
2023/03/09 03:31:58;;;;;;;3.00;0.50;;;9.00;99.90;;;;;;5052418;28;20422;-73
2023/03/09 03:34:24;;;;;;;1.27;0.60;;;9.00;99.90;;;;;;5052597;28;20187;-73
2023/03/09 03:36:49;;;;;;;2.70;0.53;;;9.10;99.90;;;;;;5052182;28;20207;-73
2023/03/09 03:39:15;;;;;;;1.73;0.47;;;9.10;99.90;;;;;;5052058;28;20218;-73
2023/03/09 03:41:41;;;;;;;1.93;0.40;;;9.10;99.90;;;;;;5052111;28;20217;-74
2023/03/09 03:44:07;;;;;;;1.23;0.50;;;9.10;99.90;;;;;;5052124;28;20181;-72
2023/03/09 03:46:32;;;;;;;3.40;0.63;;;9.10;99.90;;;;;;5052028;28;20199;-72
2023/03/09 03:48:58;;;;;;;1.63;0.50;;;9.10;99.90;;;;;;5051947;28;20226;-72
2023/03/09 03:51:24;;;;;;;1.40;0.60;;;9.00;99.90;;;;;;5052397;28;20180;-73
2023/03/09 03:53:50;;;;;;;1.63;0.57;;;8.90;99.90;;;;;;5052486;28;20233;-73
2023/03/09 03:56:15;;;;;;;1.27;0.57;;;8.80;99.90;;;;;;5052580;28;20786;-73
2023/03/09 03:58:41;;;;;;;1.00;0.47;;;8.70;99.90;;;;;;5052446;28;20579;-73
2023/03/09 04:01:08;;;;;;;1.70;0.70;;;8.70;99.90;;;;;;5052098;28;20255;-74
2023/03/09 04:03:33;;;;;;;0.70;0.40;;;8.60;99.90;;;;;;5052002;28;20591;-74
2023/03/09 04:05:59;;;;;;;1.23;0.30;;;8.60;99.90;;;;;;5050836;28;20453;-74
2023/03/09 04:08:25;;;;;;;1.37;0.50;;;8.60;99.90;;;;;;5051603;28;20577;-73
2023/03/09 04:10:50;;;;;;;3.33;0.60;;;8.60;99.90;;;;;;5051670;28;20915;-73
2023/03/09 04:13:16;;;;;;;1.33;0.50;;;8.60;99.90;;;;;;5051903;28;21318;-73
2023/03/09 04:15:42;;;;;;;1.13;0.50;;;8.60;99.90;;;;;;5051957;28;20176;-75
2023/03/09 04:18:07;;;;;;;1.30;0.50;;;8.60;99.90;;;;;;5033512;28;20235;-73
2023/03/09 04:20:34;;;;;;;1.10;0.90;;;8.60;99.90;;;;;;5049608;28;20204;-74
2023/03/09 04:23:00;;;;;;;2.00;0.63;;;8.60;99.90;;;;;;5050608;28;20382;-73
2023/03/09 04:25:26;;;;;;;1.30;0.70;;;8.60;99.90;;;;;;5050418;28;20497;-72
2023/03/09 04:27:52;;;;;;;1.27;0.60;;;8.60;99.90;;;;;;5050614;28;20176;-72
2023/03/09 04:30:20;;;;;;;1.73;0.70;;;8.60;99.90;;;;;;5050633;28;20430;-72
2023/03/09 04:32:47;;;;;;;1.83;0.40;;;8.60;99.90;;;;;;5050502;28;21013;-73
2023/03/09 04:35:13;;;;;;;0.70;0.50;;;8.60;99.90;;;;;;5050361;28;20513;-73
2023/03/09 04:37:39;;;;;;;0.90;0.57;;;8.60;99.90;;;;;;5049000;28;20463;-73
2023/03/09 04:40:05;;;;;;;2.00;0.50;;;8.60;99.90;;;;;;5048952;28;20196;-74
2023/03/09 04:42:31;;;;;;;1.43;0.50;;;8.70;99.90;;;;;;5050573;28;20176;-73
2023/03/09 04:44:57;;;;;;;2.83;0.67;;;8.70;99.90;;;;;;5050475;28;21122;-73
2023/03/09 04:47:23;;;;;;;4.07;0.70;;;8.70;99.90;;;;;;5050344;28;20414;-73
2023/03/09 04:49:49;;;;;;;0.90;0.50;;;8.70;99.90;;;;;;5050250;28;20192;-73
2023/03/09 04:52:15;;;;;;;1.00;0.50;;;8.70;99.90;;;;;;5050222;28;20414;-73
2023/03/09 04:54:40;;;;;;;1.00;0.60;;;8.60;99.90;;;;;;5050128;28;20586;-73
2023/03/09 04:57:06;;;;;;;1.37;0.80;;;8.60;99.90;;;;;;5048967;28;20415;-73
2023/03/09 04:59:33;;;;;;;1.00;0.50;;;8.60;99.90;;;;;;5050030;28;20192;-73
2023/03/09 05:01:58;;;;;;;2.40;0.73;;;8.60;99.90;;;;;;5049920;28;20463;-73
2023/03/09 05:04:24;;;;;;;2.63;0.83;;;8.60;99.90;;;;;;5049934;28;20502;-73
2023/03/09 05:06:50;;;;;;;4.40;0.77;;;8.60;99.90;;;;;;5049931;28;20572;-73
2023/03/09 05:09:16;;;;;;;0.90;0.60;;;8.60;99.90;;;;;;5049777;28;20253;-73
2023/03/09 05:11:42;;;;;;;3.03;0.90;;;8.60;99.90;;;;;;5050009;28;20180;-73
2023/03/09 05:14:08;;;;;;;5.07;0.93;;;8.60;99.90;;;;;;5050034;28;20430;-73
2023/03/09 05:16:34;;;;;;;4.40;1.30;;;8.60;99.90;;;;;;5049882;28;20505;-73
2023/03/09 05:18:59;;;;;;;3.10;0.80;;;8.70;99.90;;;;;;5049886;28;20995;-73
2023/03/09 05:21:25;;;;;;;4.17;1.47;;;8.60;99.90;;;;;;5049792;28;20199;-74
2023/03/09 05:23:51;;;;;;;3.97;1.20;;;8.60;99.90;;;;;;5049796;28;20191;-74
2023/03/09 05:26:16;;;;;;;2.83;0.80;;;8.60;99.90;;;;;;5048759;28;20187;-74
2023/03/09 05:28:42;;;;;;;6.73;1.20;;;8.60;99.90;;;;;;5049672;28;20695;-73
2023/03/09 05:31:10;;;;;;;1.93;1.10;;;8.60;99.90;;;;;;5049850;28;20180;-74
2023/03/09 05:33:36;;;;;;;4.63;1.13;;;8.60;99.90;;;;;;5049457;28;20930;-74
2023/03/09 05:36:01;;;;;;;3.33;0.83;;;8.60;99.90;;;;;;5048407;28;20500;-73
2023/03/09 05:38:27;;;;;;;8.87;1.30;;;8.60;99.90;;;;;;5047682;28;20726;-73
2023/03/09 05:40:53;;;;;;;3.73;1.23;;;8.60;99.90;;;;;;5047632;28;20742;-73
2023/03/09 05:43:18;;;;;;;7.23;1.10;;;8.60;99.90;;;;;;5047571;28;20185;-73
2023/03/09 05:45:44;;;;;;;4.17;1.07;;;8.60;99.90;;;;;;5046130;28;20222;-73
2023/03/09 05:48:10;;;;;;;5.93;1.33;;;8.60;99.90;;;;;;5046453;28;20224;-73
2023/03/09 05:50:38;;;;;;;4.83;1.30;;;8.50;99.90;;;;;;5047919;28;20179;-73
2023/03/09 05:53:03;;;;;;;5.67;1.40;;;8.50;99.90;;;;;;5047874;28;20212;-73
2023/03/09 05:55:29;;;;;;;7.73;1.20;;;8.50;99.90;;;;;;5047910;28;20465;-74
2023/03/09 05:57:55;;;;;;;7.37;1.30;;;8.50;99.90;;;;;;5047976;28;20665;-74
2023/03/09 06:00:21;;;;;;;3.80;1.50;;;8.50;99.90;;;;;;5048094;28;20747;-74
2023/03/09 06:02:46;;;;;;;2.83;1.20;;;8.60;99.90;;;;;;5048237;28;20263;-73
2023/03/09 06:05:12;;;;;;;5.13;1.20;;;8.60;99.90;;;;;;5047848;28;20505;-74
2023/03/09 06:07:37;;;;;;;8.60;1.83;;;8.60;99.90;;;;;;5047951;28;20609;-74
2023/03/09 06:10:03;;;;;;;9.40;1.87;;;8.70;99.90;;;;;;5047861;28;20210;-74
2023/03/09 06:12:29;;;;;;;13.73;1.77;;;8.70;99.90;;;;;;5047699;28;20229;-74
2023/03/09 06:14:54;;;;;;;6.87;1.50;;;8.70;99.90;;;;;;5047681;28;20455;-74
2023/03/09 06:17:20;;;;;;;8.27;1.53;;;8.70;99.90;;;;;;5047459;28;20175;-74
2023/03/09 06:19:45;;;;;;;6.23;1.37;;;8.80;99.90;;;;;;5048255;28;20196;-73
2023/03/09 06:22:11;;;;;;;12.00;1.47;;;8.80;99.90;;;;;;5047309;28;20717;-73
2023/03/09 06:24:37;;;;;;;5.47;1.20;;;8.80;99.90;;;;;;5047495;28;20184;-74
2023/03/09 06:27:03;;;;;;;7.10;1.77;;;8.80;99.90;;;;;;5047272;28;20245;-74
2023/03/09 06:29:29;;;;;;;5.33;1.27;;;8.70;99.90;;;;;;5050008;28;20206;-74
2023/03/09 06:31:54;;;;;;;6.00;1.43;;;8.80;99.90;;;;;;5051411;28;20422;-74
2023/03/09 06:34:21;;;;;;;5.80;1.03;;;8.90;99.90;;;;;;5051320;28;20431;-74
2023/03/09 06:36:46;;;;;;;3.90;1.07;;;8.90;99.90;;;;;;5050859;28;20195;-74
2023/03/09 06:39:12;;;;;;;5.60;1.00;;;8.90;99.90;;;;;;5051329;28;20456;-74
2023/03/09 06:41:38;;;;;;;4.70;1.23;;;9.00;99.90;;;;;;5051140;28;20212;-74
2023/03/09 06:44:04;;;;;;;2.87;1.07;;;9.10;99.90;;;;;;5051122;28;20234;-74
2023/03/09 06:46:30;;;;;;;9.27;1.57;;;9.10;99.90;;;;;;5051040;28;20265;-75
2023/03/09 06:48:56;;;;;;;8.20;1.73;;;9.30;99.90;;;;;;5051194;28;20434;-73
2023/03/09 06:51:22;;;;;;;3.33;1.10;;;9.20;99.90;;;;;;5050919;28;20463;-74
2023/03/09 06:53:48;;;;;;;9.53;1.97;;;9.20;99.90;;;;;;5051196;28;20570;-74
2023/03/09 06:56:14;;;;;;;7.50;1.53;;;9.30;99.90;;;;;;5051086;28;20988;-75
2023/03/09 06:58:40;;;;;;;3.43;0.97;;;9.40;99.90;;;;;;5051198;28;20954;-74
2023/03/09 07:01:11;;;;;;;4.70;1.57;;;9.40;99.90;;;;;;5051646;28;20524;-74
2023/03/09 07:03:38;;;;;;;8.10;2.60;;;9.40;99.90;;;;;;5051100;28;20410;-75
2023/03/09 07:06:04;;;;;;;4.90;1.13;;;9.50;99.90;;;;;;5051117;28;20412;-73
2023/03/09 07:08:29;;;;;;;7.00;1.30;;;9.60;99.90;;;;;;5051079;28;20456;-75
2023/03/09 07:10:55;;;;;;;6.03;1.57;;;9.60;99.90;;;;;;5051106;28;20734;-74
2023/03/09 07:13:21;;;;;;;7.03;1.10;;;9.60;99.90;;;;;;5051343;28;20183;-73
2023/03/09 07:15:47;;;;;;;6.83;1.10;;;9.60;99.90;;;;;;5050783;28;20211;-73
2023/03/09 07:18:12;;;;;;;8.33;1.17;;;9.60;99.90;;;;;;5050802;28;20200;-74
2023/03/09 07:20:39;;;;;;;5.80;1.17;;;9.70;99.90;;;;;;5050392;28;20465;-73
2023/03/09 07:23:06;;;;;;;7.23;1.50;;;9.60;99.90;;;;;;5050637;28;20184;-74
2023/03/09 07:25:35;;;;;;;6.70;1.60;;;9.60;99.90;;;;;;5050547;28;20509;-73
2023/03/09 07:28:03;;;;;;;2.60;1.00;;;9.60;99.90;;;;;;5050037;28;21079;-74
2023/03/09 07:30:29;;;;;;;5.33;1.13;;;9.80;99.90;;;;;;5050385;28;20419;-74
2023/03/09 07:32:58;;;;;;;7.33;1.07;;;10.20;99.90;;;;;;5050561;28;20439;-74
2023/03/09 07:35:24;;;;;;;8.50;1.47;;;10.60;99.90;;;;;;5050371;28;20499;-74
2023/03/09 07:37:50;;;;;;;6.63;1.13;;;10.60;99.90;;;;;;5050333;28;20427;-74
2023/03/09 07:40:16;;;;;;;8.13;1.50;;;10.70;99.90;;;;;;5048620;28;20504;-75
2023/03/09 07:42:42;;;;;;;2.90;1.13;;;10.70;99.90;;;;;;5049938;28;20414;-74
2023/03/09 07:45:09;;;;;;;5.80;1.27;;;10.90;99.90;;;;;;5049785;28;20549;-75
2023/03/09 07:47:35;;;;;;;7.53;1.03;;;10.90;99.90;;;;;;5049653;28;20422;-75
2023/03/09 07:50:01;;;;;;;8.27;1.70;;;10.60;99.90;;;;;;5049607;28;20521;-74
2023/03/09 07:52:30;;;;;;;4.40;1.10;;;10.50;99.90;;;;;;5049732;28;20422;-75
2023/03/09 07:55:00;;;;;;;4.40;1.10;;;10.30;99.90;;;;;;5049797;28;20423;-75
2023/03/09 07:57:35;;;;;;;7.50;1.27;;;10.40;99.90;;;;;;5053814;28;20454;-74
2023/03/09 08:00:01;;;;;;;2.47;0.80;;;10.50;99.90;;;;;;5051869;28;20940;-75
2023/03/09 08:02:27;;;;;;;4.27;1.17;;;10.40;99.90;;;;;;5052048;28;20417;-75
2023/03/09 08:04:53;;;;;;;7.10;1.73;;;10.30;99.90;;;;;;5052871;28;20420;-75
2023/03/09 08:07:18;;;;;;;2.77;1.20;;;10.30;99.90;;;;;;5051038;28;20426;-74
2023/03/09 08:09:44;;;;;;;4.23;1.27;;;10.40;99.90;;;;;;5052221;28;20209;-74
2023/03/09 08:12:10;;;;;;;7.37;1.50;;;10.50;99.90;;;;;;5052584;28;20190;-75
2023/03/09 08:14:36;;;;;;;6.27;1.60;;;10.40;99.90;;;;;;5051859;28;20422;-73
2023/03/09 08:17:07;;;;;;;6.00;1.27;;;10.40;99.90;;;;;;5051926;28;20675;-74
2023/03/09 08:19:33;;;;;;;7.77;1.20;;;10.50;99.90;;;;;;5051444;28;20438;-74
2023/03/09 08:21:59;;;;;;;3.10;1.00;;;10.50;99.90;;;;;;5051560;28;20473;-74
2023/03/09 08:24:24;;;;;;;3.23;1.00;;;10.50;99.90;;;;;;5052392;28;20180;-74
2023/03/09 08:26:50;;;;;;;6.10;1.27;;;10.50;99.90;;;;;;5052289;28;20203;-74
2023/03/09 08:29:15;;;;;;;4.07;0.93;;;10.60;99.90;;;;;;5051766;28;20230;-74
2023/03/09 08:31:41;;;;;;;3.20;0.90;;;10.50;99.90;;;;;;5051812;28;20932;-74
2023/03/09 08:34:07;;;;;;;4.20;1.23;;;10.40;99.90;;;;;;5051589;28;20184;-74
2023/03/09 08:36:32;;;;;;;2.17;0.60;;;10.50;99.90;;;;;;5051995;28;20199;-74
2023/03/09 08:38:58;;;;;;;4.30;1.20;;;10.40;99.90;;;;;;5051549;28;20197;-75
2023/03/09 08:41:24;;;;;;;2.90;0.80;;;10.40;99.90;;;;;;5051600;28;20619;-74
2023/03/09 08:43:50;;;;;;;2.33;1.07;;;10.50;99.90;;;;;;5051807;28;20180;-75
2023/03/09 08:46:16;;;;;;;3.57;1.13;;;10.60;99.90;;;;;;5051554;28;20267;-74
2023/03/09 08:48:42;;;;;;;3.00;0.70;;;10.60;99.90;;;;;;5051450;28;20469;-74
2023/03/09 08:51:09;;;;;;;5.97;0.97;;;10.50;99.90;;;;;;5051075;28;20817;-74
2023/03/09 08:53:36;;;;;;;2.13;0.80;;;10.50;99.90;;;;;;5051587;28;20204;-74
2023/03/09 08:56:04;;;;;;;8.23;1.60;;;10.50;99.90;;;;;;5051289;28;20419;-73
2023/03/09 08:58:30;;;;;;;5.40;1.00;;;10.50;99.90;;;;;;5051344;28;21120;-76
2023/03/09 09:00:55;;;;;;;4.20;1.20;;;10.50;99.90;;;;;;5050447;28;20595;-74
2023/03/09 09:03:21;;;;;;;2.97;1.07;;;10.50;99.90;;;;;;5049218;28;20229;-75
2023/03/09 09:05:46;;;;;;;3.10;1.00;;;10.50;99.90;;;;;;5048997;28;20177;-74
2023/03/09 09:08:12;;;;;;;7.77;1.27;;;10.60;99.90;;;;;;5049195;28;20284;-75
2023/03/09 09:10:42;;;;;;;2.03;0.80;;;10.70;99.90;;;;;;5049055;28;20670;-74
2023/03/09 09:13:09;;;;;;;4.20;0.80;;;10.90;99.90;;;;;;5048983;28;20189;-75
2023/03/09 09:15:37;;;;;;;8.07;1.43;;;10.80;99.90;;;;;;5048460;28;20461;-75
2023/03/09 09:18:03;;;;;;;6.60;1.10;;;10.90;99.90;;;;;;5048119;28;20437;-75
2023/03/09 09:20:29;;;;;;;2.20;0.80;;;10.90;99.90;;;;;;5047955;28;20838;-74
2023/03/09 09:22:54;;;;;;;3.10;0.90;;;10.90;99.90;;;;;;5048076;28;20191;-74
2023/03/09 09:25:20;;;;;;;4.40;1.77;;;10.80;99.90;;;;;;5047788;28;20266;-75
2023/03/09 09:27:49;;;;;;;5.13;0.90;;;11.00;99.90;;;;;;5047847;28;20187;-74
2023/03/09 09:30:15;;;;;;;2.60;0.60;;;11.00;99.90;;;;;;5047899;28;20187;-74
2023/03/09 09:32:41;;;;;;;7.23;1.30;;;11.00;99.90;;;;;;5047995;28;20414;-73
2023/03/09 09:35:07;;;;;;;1.50;0.80;;;11.10;99.90;;;;;;5047518;28;20503;-74
2023/03/09 09:37:33;;;;;;;3.50;0.70;;;11.20;99.90;;;;;;5047801;28;20184;-75
2023/03/09 09:39:59;;;;;;;1.53;0.60;;;11.20;99.90;;;;;;5047471;28;20522;-75
2023/03/09 09:42:25;;;;;;;1.93;0.60;;;11.30;99.90;;;;;;5047954;28;20431;-75
2023/03/09 09:44:53;;;;;;;5.93;0.67;;;11.30;99.90;;;;;;5047836;28;20183;-75
2023/03/09 09:47:22;;;;;;;1.73;0.70;;;11.50;99.90;;;;;;5046460;28;20283;-75
2023/03/09 09:49:51;;;;;;;2.53;0.60;;;11.60;99.90;;;;;;5047926;28;20436;-74
2023/03/09 09:52:32;;;;;;;2.30;0.70;;;11.80;99.90;;;;;;5048044;28;21091;-75
2023/03/09 09:55:29;;;;;;;6.30;0.80;;;12.10;99.90;;;;;;5047829;28;20409;-75
2023/03/09 09:58:19;;;;;;;2.37;0.80;;;12.00;99.90;;;;;;5047902;28;20477;-73
2023/03/09 10:00:52;;;;;;;5.70;0.87;;;12.20;99.90;;;;;;5047885;28;20629;-75
2023/03/09 10:03:49;;;;;;;3.83;0.70;;;12.30;99.90;;;;;;5047411;28;20582;-75
2023/03/09 10:06:19;;;;;;;1.20;0.80;;;12.30;99.90;;;;;;5043087;28;20424;-76
2023/03/09 10:08:53;;;;;;;2.40;0.90;;;12.20;99.90;;;;;;5047638;28;20429;-76
2023/03/09 10:11:29;;;;;;;2.07;0.80;;;12.10;99.90;;;;;;5047750;28;20454;-75
2023/03/09 10:14:11;;;;;;;3.57;1.00;;;12.00;99.90;;;;;;5047735;28;20463;-75
2023/03/09 10:16:42;;;;;;;4.43;1.03;;;12.00;99.90;;;;;;5047842;28;20496;-74
2023/03/09 10:19:15;;;;;;;2.90;0.90;;;11.80;99.90;;;;;;5047531;28;20441;-75
2023/03/09 10:21:48;;;;;;;2.10;0.70;;;11.60;99.90;;;;;;5047506;28;20470;-75
2023/03/09 10:24:26;;;;;;;5.50;1.40;;;11.60;99.90;;;;;;5047454;28;20422;-74
2023/03/09 10:27:01;;;;;;;6.87;1.77;;;11.70;99.90;;;;;;5047553;28;20416;-74
2023/03/09 10:29:57;;;;;;;2.03;0.90;;;11.70;99.90;;;;;;5047262;28;20450;-74
2023/03/09 10:32:34;;;;;;;4.93;1.50;;;11.80;99.90;;;;;;5047285;28;20415;-75
2023/03/09 10:35:18;;;;;;;3.43;0.70;;;11.80;99.90;;;;;;5047235;28;20406;-73
2023/03/09 10:37:46;;;;;;;5.13;0.80;;;11.80;99.90;;;;;;5047402;28;20976;-74
2023/03/09 10:40:22;;;;;;;3.60;1.07;;;11.90;99.90;;;;;;5047142;28;20403;-74
2023/03/09 10:42:48;;;;;;;2.13;0.70;;;11.90;99.90;;;;;;5047084;28;20431;-75
2023/03/09 10:45:26;;;;;;;1.87;0.70;;;12.00;99.90;;;;;;5047140;28;20944;-75
2023/03/09 10:47:54;;;;;;;2.40;0.70;;;12.30;99.90;;;;;;5047140;28;20178;-74
2023/03/09 10:50:22;;;;;;;7.60;1.20;;;12.40;99.90;;;;;;5047145;28;20908;-74
2023/03/09 10:52:49;;;;;;;1.60;0.87;;;12.50;99.90;;;;;;5045861;28;20408;-75
2023/03/09 10:55:33;;;;;;;4.80;1.33;;;13.00;99.90;;;;;;5047453;28;20416;-74
2023/03/09 10:58:21;;;;;;;4.13;1.10;;;13.20;99.90;;;;;;5047222;28;20417;-75
2023/03/09 11:01:21;;;;;;;6.63;1.20;;;13.90;99.90;;;;;;5047194;28;20467;-75
2023/03/09 11:03:47;;;;;;;5.23;0.87;;;14.70;99.90;;;;;;5043003;28;20449;-75
2023/03/09 11:06:12;;;;;;;3.13;0.80;;;15.90;98.00;;;;;;5047385;28;20411;-75
2023/03/09 11:08:59;;;;;;;2.17;1.00;;;15.80;93.60;;;;;;5047261;28;20579;-75
2023/03/09 11:11:27;;;;;;;3.17;0.83;;;16.20;93.80;;;;;;5047502;28;20199;-75
2023/03/09 11:13:53;;;;;;;4.13;1.10;;;16.40;91.40;;;;;;5047525;28;20425;-75
2023/03/09 11:16:25;;;;;;;3.30;1.03;;;16.80;91.50;;;;;;5051078;28;20505;-74
2023/03/09 11:19:12;;;;;;;5.10;1.40;;;17.00;89.60;;;;;;5051034;28;20924;-73
2023/03/09 11:21:49;;;;;;;2.47;1.10;;;16.80;86.20;;;;;;5050550;28;20992;-73
2023/03/09 11:24:16;;;;;;;5.90;1.67;;;16.50;86.80;;;;;;5050696;28;20416;-73
2023/03/09 11:26:55;;;;;;;5.30;1.33;;;16.70;87.40;;;;;;5050561;28;20418;-75
2023/03/09 11:29:32;;;;;;;12.90;1.50;;;16.60;84.30;;;;;;5050316;28;20457;-74
2023/03/09 11:31:58;;;;;;;7.60;1.43;;;16.90;85.00;;;;;;5050111;28;20421;-74
2023/03/09 11:34:34;;;;;;;5.70;1.03;;;17.20;81.60;;;;;;5051086;28;20431;-74
2023/03/09 11:37:17;;;;;;;4.30;1.30;;;16.30;80.50;;;;;;5051090;28;20281;-72
2023/03/09 11:40:05;;;;;;;2.70;0.93;;;16.30;82.60;;;;;;5050196;28;20450;-74
2023/03/09 11:42:46;;;;;;;5.27;1.33;;;16.50;81.00;;;;;;5049975;28;20445;-74
2023/03/09 11:45:21;;;;;;;6.37;1.70;;;16.50;81.60;;;;;;5049743;28;20409;-74
2023/03/09 11:48:01;;;;;;;4.90;1.33;;;16.20;81.40;;;;;;5049455;28;20407;-74
2023/03/09 11:50:53;;;;;;;3.17;1.07;;;16.00;82.20;;;;;;5049675;28;21036;-74
2023/03/09 11:53:36;;;;;;;4.90;1.17;;;15.90;81.40;;;;;;5049580;28;20431;-74
2023/03/09 11:56:08;;;;;;;2.43;0.90;;;15.40;81.80;;;;;;5049856;28;20568;-73
2023/03/09 11:58:42;;;;;;;3.13;0.90;;;15.20;83.20;;;;;;5049313;28;20946;-73
2023/03/09 12:01:45;;;;;;;2.67;0.93;;;15.30;86.20;;;;;;5049358;28;20490;-73
2023/03/09 12:04:13;;;;;;;5.60;1.10;;;15.60;85.80;;;;;;5040623;28;20441;-74
2023/03/09 12:06:53;;;;;;;4.73;0.77;;;15.70;84.00;;;;;;5049759;28;20491;-73
2023/03/09 12:09:32;;;;;;;4.23;0.70;;;15.40;83.20;;;;;;5049366;28;20434;-74
2023/03/09 12:12:42;;;;;;;4.30;1.13;;;15.30;84.50;;;;;;5049296;28;20430;-72
2023/03/09 12:15:36;;;;;;;3.60;1.10;;;14.90;84.80;;;;;;5041887;28;20430;-74
2023/03/09 12:18:04;;;;;;;5.80;1.97;;;15.00;86.40;;;;;;5049120;28;20411;-74
2023/03/09 12:20:38;;;;;;;4.00;0.90;;;14.90;86.90;;;;;;5049141;28;20509;-74
2023/03/09 12:23:04;;;;;;;4.33;1.33;;;15.00;87.40;;;;;;5049169;28;21222;-74
2023/03/09 12:25:30;;;;;;;2.47;1.10;;;15.10;86.20;;;;;;5048709;28;20922;-75
2023/03/09 12:28:00;;;;;;;3.40;1.20;;;15.30;86.60;;;;;;5048453;28;20453;-73
2023/03/09 12:30:32;;;;;;;3.80;1.20;;;15.50;86.20;;;;;;5048856;28;20418;-73
2023/03/09 12:33:00;;;;;;;5.63;1.13;;;15.40;84.30;;;;;;5049486;28;20922;-74
2023/03/09 12:35:41;;;;;;;2.20;0.80;;;15.50;84.40;;;;;;5049110;28;21243;-74
2023/03/09 12:38:20;;;;;;;1.50;0.70;;;15.30;84.30;;;;;;5049024;28;20454;-73
2023/03/09 12:40:47;;;;;;;4.90;0.77;;;15.00;84.60;;;;;;5048834;28;20512;-73
2023/03/09 12:43:13;;;;;;;4.00;0.97;;;14.90;86.00;;;;;;5049328;28;20416;-73
2023/03/09 12:45:39;;;;;;;1.73;0.70;;;15.00;85.70;;;;;;5049546;28;20871;-73
2023/03/09 12:48:25;;;;;;;3.40;0.73;;;15.10;87.00;;;;;;5049484;28;20196;-72
2023/03/09 12:50:58;;;;;;;2.10;0.70;;;14.70;85.70;;;;;;5049410;28;20875;-74
2023/03/09 12:53:32;;;;;;;3.30;0.83;;;14.60;86.70;;;;;;5049504;28;20457;-73
2023/03/09 12:56:03;;;;;;;6.77;1.03;;;14.40;85.30;;;;;;5049260;28;20956;-74
2023/03/09 12:58:41;;;;;;;3.63;1.47;;;14.20;88.30;;;;;;5049247;28;20507;-74
2023/03/09 13:01:07;;;;;;;5.40;1.30;;;14.20;89.40;;;;;;5049099;28;20458;-73